createdAt,value
2023-08-05T00:01:53.455Z,16.50
2023-08-05T00:04:21.492Z,16.58
2023-08-05T00:06:49.555Z,16.45
2023-08-05T00:09:17.496Z,16.39
2023-08-05T00:11:45.924Z,16.48
2023-08-05T00:14:13.661Z,16.37
2023-08-05T00:16:41.528Z,16.38
2023-08-05T00:19:10.744Z,16.26
2023-08-05T00:21:38.718Z,16.24
2023-08-05T00:24:06.923Z,16.22
2023-08-05T00:26:34.696Z,16.19
2023-08-05T00:29:03.992Z,16.23
2023-08-05T00:31:31.817Z,16.27
2023-08-05T00:33:59.900Z,16.25
2023-08-05T00:36:29.253Z,16.24
2023-08-05T00:38:57.051Z,16.20
2023-08-05T00:41:24.813Z,16.21
2023-08-05T00:43:53.397Z,16.20
2023-08-05T00:46:24.094Z,16.08
2023-08-05T00:48:53.095Z,16.11
2023-08-05T00:51:22.289Z,15.99
2023-08-05T00:53:52.619Z,15.94
2023-08-05T00:56:20.488Z,15.93
2023-08-05T00:58:48.460Z,15.93
2023-08-05T01:01:16.425Z,15.95
2023-08-05T01:03:44.539Z,15.89
2023-08-05T01:06:14.024Z,15.76
2023-08-05T01:08:42.502Z,15.84
2023-08-05T01:11:12.598Z,15.84
2023-08-05T01:13:41.296Z,15.80
2023-08-05T01:16:09.348Z,15.72
2023-08-05T01:18:40.161Z,15.71
2023-08-05T01:21:14.975Z,15.76
2023-08-05T01:23:57.422Z,15.80
2023-08-05T01:26:26.622Z,15.80
2023-08-05T01:28:55.720Z,15.80
2023-08-05T01:31:24.462Z,15.88
2023-08-05T01:33:52.874Z,15.82
2023-08-05T01:36:22.183Z,15.79
2023-08-05T01:38:50.354Z,15.72
2023-08-05T01:41:18.330Z,15.67
2023-08-05T01:43:47.537Z,15.69
2023-08-05T01:46:16.590Z,15.69
2023-08-05T01:48:44.858Z,15.70
2023-08-05T01:51:12.783Z,15.61
2023-08-05T01:53:40.649Z,15.53
2023-08-05T01:56:08.405Z,15.59
2023-08-05T01:58:36.793Z,15.56
2023-08-05T02:01:06.172Z,15.62
2023-08-05T02:03:34.862Z,15.58
2023-08-05T02:06:04.478Z,15.58
2023-08-05T02:08:32.296Z,15.68
2023-08-05T02:11:00.010Z,15.58
2023-08-05T02:13:27.788Z,15.61
2023-08-05T02:15:55.673Z,15.66
2023-08-05T02:18:24.858Z,15.55
2023-08-05T02:20:52.580Z,15.38
2023-08-05T02:23:20.339Z,15.43
2023-08-05T02:25:48.157Z,15.35
2023-08-05T02:28:16.517Z,15.41
2023-08-05T02:30:44.492Z,15.38
2023-08-05T02:33:12.247Z,15.33
2023-08-05T02:35:41.912Z,15.36
2023-08-05T02:38:09.700Z,15.29
2023-08-05T02:40:37.806Z,15.26
2023-08-05T02:43:05.616Z,15.18
2023-08-05T02:45:33.950Z,15.20
2023-08-05T02:48:02.764Z,15.12
2023-08-05T02:50:31.182Z,15.04
2023-08-05T02:53:00.284Z,15.02
2023-08-05T02:55:29.347Z,15.09
2023-08-05T02:57:57.105Z,15.02
2023-08-05T03:00:25.010Z,15.00
2023-08-05T03:02:53.182Z,15.07
2023-08-05T03:05:21.339Z,15.02
2023-08-05T03:07:49.251Z,14.96
2023-08-05T03:10:18.636Z,14.90
2023-08-05T03:12:48.263Z,14.81
2023-08-05T03:15:16.565Z,14.77
2023-08-05T03:17:44.823Z,14.63
2023-08-05T03:20:24.802Z,14.52
2023-08-05T03:22:55.238Z,14.41
2023-08-05T03:25:27.751Z,14.44
2023-08-05T03:27:59.872Z,14.41
2023-08-05T03:30:30.112Z,14.41
2023-08-05T03:32:59.486Z,14.41
2023-08-05T03:35:30.514Z,14.40
2023-08-05T03:37:59.307Z,14.42
2023-08-05T03:40:28.842Z,14.46
2023-08-05T03:42:56.729Z,14.49
2023-08-05T03:45:25.396Z,14.44
2023-08-05T03:47:55.063Z,14.51
2023-08-05T03:50:24.141Z,14.50
2023-08-05T03:52:54.250Z,14.53
2023-08-05T03:55:22.569Z,14.48
2023-08-05T03:57:52.015Z,14.52
2023-08-05T04:00:19.979Z,14.55
2023-08-05T04:02:48.503Z,14.55
2023-08-05T04:05:16.759Z,14.57
2023-08-05T04:07:47.252Z,14.51
2023-08-05T04:10:15.023Z,14.53
2023-08-05T04:12:42.815Z,14.65
2023-08-05T04:15:14.703Z,14.70
2023-08-05T04:17:45.469Z,14.75
2023-08-05T04:20:14.528Z,14.78
2023-08-05T04:22:42.540Z,14.76
2023-08-05T04:25:12.451Z,14.75
2023-08-05T04:27:40.154Z,14.77
2023-08-05T04:30:09.310Z,14.77
2023-08-05T04:32:40.365Z,14.78
2023-08-05T04:35:09.047Z,14.71
2023-08-05T04:37:36.838Z,14.73
2023-08-05T04:40:05.024Z,14.72
2023-08-05T04:42:33.209Z,14.71
2023-08-05T04:45:01.592Z,14.70
2023-08-05T04:47:29.491Z,14.75
2023-08-05T04:49:59.208Z,14.77
2023-08-05T04:52:27.192Z,14.76
2023-08-05T04:54:55.180Z,14.78
2023-08-05T04:57:22.920Z,14.79
2023-08-05T04:59:50.666Z,14.75
2023-08-05T05:02:18.635Z,14.76
2023-08-05T05:04:46.434Z,14.68
2023-08-05T05:07:15.785Z,14.64
2023-08-05T05:09:43.637Z,14.68
2023-08-05T05:12:11.531Z,14.76
2023-08-05T05:14:44.645Z,14.83
2023-08-05T05:17:12.693Z,14.92
2023-08-05T05:19:40.569Z,14.99
2023-08-05T05:22:08.699Z,15.06
2023-08-05T05:24:38.331Z,15.10
2023-08-05T05:27:06.658Z,15.16
2023-08-05T05:29:37.077Z,15.18
2023-08-05T05:32:07.821Z,15.25
2023-08-05T05:34:37.821Z,15.31
2023-08-05T05:37:08.455Z,15.36
2023-08-05T05:39:41.033Z,15.40
2023-08-05T05:42:12.170Z,15.52
2023-08-05T05:44:42.310Z,15.61
2023-08-05T05:47:13.157Z,15.66
2023-08-05T05:49:42.945Z,15.67
2023-08-05T05:52:15.113Z,15.68
2023-08-05T05:54:47.686Z,15.70
2023-08-05T05:57:16.568Z,15.71
2023-08-05T05:59:45.386Z,15.81
2023-08-05T06:02:14.022Z,15.85
2023-08-05T06:04:43.767Z,15.87
2023-08-05T06:07:12.072Z,15.88
2023-08-05T06:09:40.416Z,15.89
2023-08-05T06:12:11.631Z,15.91
2023-08-05T06:14:39.605Z,15.99
2023-08-05T06:17:08.190Z,16.07
2023-08-05T06:19:36.063Z,16.12
2023-08-05T06:22:03.785Z,16.15
2023-08-05T06:24:31.769Z,16.14
2023-08-05T06:26:59.688Z,16.20
2023-08-05T06:29:29.300Z,16.26
2023-08-05T06:31:57.018Z,16.44
2023-08-05T06:34:27.085Z,16.43
2023-08-05T06:36:56.731Z,16.47
2023-08-05T06:39:26.506Z,16.63
2023-08-05T06:41:55.807Z,16.77
2023-08-05T06:44:32.482Z,16.85
2023-08-05T06:47:03.646Z,16.72
2023-08-05T06:49:36.607Z,16.87
2023-08-05T06:52:07.778Z,16.90
2023-08-05T06:54:37.258Z,16.95
2023-08-05T06:57:07.995Z,16.78
2023-08-05T06:59:39.349Z,16.77
2023-08-05T07:02:09.520Z,16.79
2023-08-05T07:04:38.973Z,16.82
2023-08-05T07:07:09.426Z,16.86
2023-08-05T07:09:37.349Z,16.94
2023-08-05T07:12:05.573Z,16.92
2023-08-05T07:14:34.776Z,16.99
2023-08-05T07:17:04.088Z,17.11
2023-08-05T07:19:31.810Z,17.15
2023-08-05T07:21:59.488Z,17.19
2023-08-05T07:24:27.271Z,17.33
2023-08-05T07:26:55.121Z,17.49
2023-08-05T07:29:22.887Z,17.46
2023-08-05T07:31:51.345Z,17.46
2023-08-05T07:34:21.489Z,17.46
2023-08-05T07:36:49.224Z,17.41
2023-08-05T07:39:17.221Z,17.58
2023-08-05T07:41:45.145Z,17.61
2023-08-05T07:44:13.912Z,17.69
2023-08-05T07:46:42.729Z,17.95
2023-08-05T07:49:12.733Z,18.07
2023-08-05T07:51:42.611Z,18.17
2023-08-05T07:54:10.521Z,18.27
2023-08-05T07:56:40.700Z,18.22
2023-08-05T07:59:08.411Z,18.23
2023-08-05T08:01:37.325Z,18.22
2023-08-05T08:04:08.434Z,18.19
2023-08-05T08:06:36.297Z,17.94
2023-08-05T08:09:05.437Z,17.99
2023-08-05T08:11:33.211Z,18.19
2023-08-05T08:14:00.957Z,18.19
2023-08-05T08:16:29.356Z,18.34
2023-08-05T08:18:57.151Z,18.39
2023-08-05T08:21:24.905Z,18.37
2023-08-05T08:23:52.783Z,18.57
2023-08-05T08:26:22.514Z,18.74
2023-08-05T08:28:50.182Z,18.95
2023-08-05T08:31:18.013Z,18.99
2023-08-05T08:33:46.368Z,19.08
2023-08-05T08:36:14.365Z,19.18
2023-08-05T08:38:42.090Z,19.17
2023-08-05T08:41:09.966Z,18.98
2023-08-05T08:43:39.861Z,19.13
2023-08-05T08:46:08.843Z,19.25
2023-08-05T08:48:38.276Z,19.49
2023-08-05T08:51:06.084Z,19.48
2023-08-05T08:53:34.142Z,19.53
2023-08-05T08:56:03.169Z,19.68
2023-08-05T08:58:31.391Z,19.64
2023-08-05T09:01:01.263Z,19.88
2023-08-05T09:03:32.106Z,19.83
2023-08-05T09:06:00.611Z,19.79
2023-08-05T09:08:30.132Z,19.79
2023-08-05T09:10:58.145Z,19.92
2023-08-05T09:13:25.947Z,20.03
2023-08-05T09:15:56.828Z,20.12
2023-08-05T09:18:26.323Z,20.14
2023-08-05T09:20:54.198Z,20.41
2023-08-05T09:23:22.132Z,20.39
2023-08-05T09:25:50.941Z,20.41
2023-08-05T09:28:32.637Z,20.38
2023-08-05T09:31:16.375Z,20.50
2023-08-05T09:33:46.114Z,20.66
2023-08-05T09:36:15.809Z,20.81
2023-08-05T09:38:46.192Z,20.56
2023-08-05T09:41:14.379Z,20.70
2023-08-05T09:43:46.835Z,20.75
2023-08-05T09:46:15.532Z,20.87
2023-08-05T09:48:46.011Z,20.87
2023-08-05T09:51:17.492Z,21.16
2023-08-05T09:53:47.499Z,21.20
2023-08-05T09:56:19.986Z,21.42
2023-08-05T09:58:49.010Z,21.45
2023-08-05T10:01:19.275Z,21.78
2023-08-05T10:03:50.755Z,22.20
2023-08-05T10:06:19.249Z,22.18
2023-08-05T10:08:48.203Z,23.13
2023-08-05T10:11:16.693Z,23.44
2023-08-05T10:13:47.054Z,23.86
2023-08-05T10:16:15.258Z,24.86
2023-08-05T10:18:43.113Z,25.45
2023-08-05T10:21:12.189Z,25.72
2023-08-05T10:23:40.165Z,24.80
2023-08-05T10:26:08.111Z,24.67
2023-08-05T10:28:44.081Z,24.30
2023-08-05T10:31:26.399Z,25.09
2023-08-05T10:34:10.023Z,24.17
2023-08-05T10:36:46.930Z,23.47
2023-08-05T10:39:43.558Z,24.35
2023-08-05T10:42:38.734Z,24.62
2023-08-05T10:45:07.492Z,23.99
2023-08-05T10:47:35.999Z,24.16
2023-08-05T10:50:04.048Z,24.54
2023-08-05T10:52:38.877Z,24.78
2023-08-05T10:55:13.495Z,25.13
2023-08-05T10:57:48.614Z,24.76
2023-08-05T11:00:21.505Z,23.97
2023-08-05T11:02:51.271Z,24.38
2023-08-05T11:05:21.567Z,25.23
2023-08-05T11:07:52.110Z,25.55
2023-08-05T11:10:19.943Z,25.80
2023-08-05T11:12:47.919Z,25.90
2023-08-05T11:15:15.667Z,26.47
2023-08-05T11:17:56.965Z,26.42
2023-08-05T11:20:33.588Z,24.50
2023-08-05T11:23:03.101Z,23.76
2023-08-05T11:25:31.176Z,23.24
2023-08-05T11:27:59.972Z,23.00
2023-08-05T11:30:27.772Z,22.79
2023-08-05T11:32:58.473Z,22.70
2023-08-05T11:35:26.988Z,22.71
2023-08-05T11:37:54.892Z,22.63
2023-08-05T11:40:24.597Z,22.63
2023-08-05T11:42:53.653Z,22.60
2023-08-05T11:45:21.571Z,22.81
2023-08-05T11:47:49.617Z,22.71
2023-08-05T11:50:17.495Z,22.80
2023-08-05T11:53:07.255Z,23.30
2023-08-05T11:55:40.778Z,24.15
2023-08-05T11:58:08.960Z,23.88
2023-08-05T12:00:37.333Z,23.49
2023-08-05T12:03:06.209Z,23.31
2023-08-05T12:05:35.057Z,23.66
2023-08-05T12:08:03.309Z,23.57
2023-08-05T12:10:31.651Z,23.42
2023-08-05T12:13:04.662Z,24.91
2023-08-05T12:15:33.350Z,25.52
2023-08-05T12:18:02.227Z,24.91
2023-08-05T12:20:31.653Z,24.60
2023-08-05T12:23:00.738Z,24.01
2023-08-05T12:25:29.489Z,23.87
2023-08-05T12:27:58.007Z,24.03
2023-08-05T12:30:27.093Z,23.59
2023-08-05T12:32:58.190Z,23.19
2023-08-05T12:35:27.276Z,22.97
2023-08-05T12:37:55.072Z,22.99
2023-08-05T12:40:23.094Z,22.92
2023-08-05T12:42:51.259Z,22.93
2023-08-05T12:45:19.003Z,22.93
2023-08-05T12:47:48.283Z,23.32
2023-08-05T12:50:16.128Z,23.79
2023-08-05T12:52:43.966Z,24.48
2023-08-05T12:55:11.705Z,24.23
2023-08-05T12:57:39.989Z,23.82
2023-08-05T13:00:09.028Z,23.57
2023-08-05T13:02:36.947Z,23.58
2023-08-05T13:05:07.074Z,23.34
2023-08-05T13:07:34.894Z,24.39
2023-08-05T13:10:02.744Z,25.07
2023-08-05T13:12:30.597Z,25.54
2023-08-05T13:14:58.706Z,25.80
2023-08-05T13:17:26.638Z,25.48
2023-08-05T13:19:54.589Z,25.52
2023-08-05T13:22:23.934Z,25.51
2023-08-05T13:24:52.000Z,25.67
2023-08-05T13:27:22.471Z,25.96
2023-08-05T13:29:50.436Z,26.05
2023-08-05T13:32:18.287Z,25.64
2023-08-05T13:34:46.728Z,25.48
2023-08-05T13:37:14.633Z,25.58
2023-08-05T13:39:44.210Z,26.16
2023-08-05T13:42:11.956Z,25.75
2023-08-05T13:44:39.828Z,25.64
2023-08-05T13:47:07.986Z,26.05
2023-08-05T13:49:35.844Z,25.46
2023-08-05T13:52:03.725Z,25.85
2023-08-05T13:54:31.687Z,26.12
2023-08-05T13:57:01.093Z,25.89
2023-08-05T13:59:29.425Z,26.10
2023-08-05T14:01:57.986Z,26.13
2023-08-05T14:04:26.049Z,26.18
2023-08-05T14:06:53.824Z,25.30
2023-08-05T14:09:21.755Z,24.62
2023-08-05T14:11:49.851Z,24.05
2023-08-05T14:14:20.543Z,24.03
2023-08-05T14:16:50.116Z,24.24
2023-08-05T14:19:20.608Z,24.16
2023-08-05T14:21:48.645Z,24.14
2023-08-05T14:24:16.658Z,24.69
2023-08-05T14:26:44.953Z,25.00
2023-08-05T14:29:13.451Z,24.96
2023-08-05T14:31:42.745Z,24.22
2023-08-05T14:34:10.872Z,23.70
2023-08-05T14:36:39.057Z,23.32
2023-08-05T14:39:06.930Z,23.06
2023-08-05T14:41:35.743Z,22.95
2023-08-05T14:44:03.719Z,22.89
2023-08-05T14:46:31.721Z,22.98
2023-08-05T14:49:01.271Z,23.00
2023-08-05T14:51:29.191Z,23.00
2023-08-05T14:53:57.193Z,23.02
2023-08-05T14:56:24.964Z,22.99
2023-08-05T14:58:53.119Z,22.96
2023-08-05T15:01:20.912Z,23.02
2023-08-05T15:03:50.569Z,23.02
2023-08-05T15:06:21.458Z,23.04
2023-08-05T15:08:53.139Z,22.93
2023-08-05T15:11:20.816Z,22.95
2023-08-05T15:13:49.579Z,22.90
2023-08-05T15:16:17.540Z,22.84
2023-08-05T15:18:45.351Z,22.77
2023-08-05T15:21:13.462Z,22.77
2023-08-05T15:23:42.498Z,22.84
2023-08-05T15:26:10.518Z,22.97
2023-08-05T15:28:38.505Z,23.19
2023-08-05T15:31:06.482Z,23.54
2023-08-05T15:33:34.565Z,23.61
2023-08-05T15:36:02.272Z,23.80
2023-08-05T15:38:30.109Z,23.83
2023-08-05T15:41:02.236Z,23.85
2023-08-05T15:43:30.109Z,23.51
2023-08-05T15:45:58.653Z,23.49
2023-08-05T15:48:26.757Z,23.33
2023-08-05T15:50:54.949Z,23.18
2023-08-05T15:53:22.769Z,23.17
2023-08-05T15:55:59.765Z,23.02
2023-08-05T15:58:29.143Z,22.97
2023-08-05T16:01:01.451Z,22.82
2023-08-05T16:03:29.878Z,22.59
2023-08-05T16:06:08.788Z,22.63
2023-08-05T16:08:37.326Z,22.46
2023-08-05T16:11:06.842Z,22.49
2023-08-05T16:13:39.091Z,22.34
2023-08-05T16:16:09.957Z,22.23
2023-08-05T16:18:40.386Z,22.21
2023-08-05T16:21:17.271Z,22.17
2023-08-05T16:23:47.160Z,22.03
2023-08-05T16:26:16.758Z,22.04
2023-08-05T16:28:47.831Z,22.00
2023-08-05T16:31:18.300Z,21.76
2023-08-05T16:33:46.871Z,21.45
2023-08-05T16:36:15.361Z,21.19
2023-08-05T16:38:44.418Z,21.14
2023-08-05T16:41:12.840Z,21.01
2023-08-05T16:43:41.329Z,20.89
2023-08-05T16:46:11.733Z,20.58
2023-08-05T16:48:39.465Z,20.36
2023-08-05T16:51:07.282Z,19.97
2023-08-05T16:53:35.503Z,19.78
2023-08-05T16:56:03.594Z,19.62
2023-08-05T16:58:31.548Z,19.43
2023-08-05T17:00:59.629Z,19.27
2023-08-05T17:03:29.137Z,19.26
2023-08-05T17:05:56.975Z,19.11
2023-08-05T17:08:24.727Z,19.16
2023-08-05T17:10:52.463Z,19.15
2023-08-05T17:13:20.397Z,19.04
2023-08-05T17:15:48.762Z,18.83
2023-08-05T17:18:17.671Z,18.77
2023-08-05T17:20:48.578Z,18.80
2023-08-05T17:23:18.370Z,18.80
2023-08-05T17:25:53.120Z,18.75
2023-08-05T17:28:24.946Z,18.54
2023-08-05T17:30:53.146Z,18.39
2023-08-05T17:33:21.156Z,18.37
2023-08-05T17:35:54.449Z,18.53
2023-08-05T17:38:24.052Z,18.46
2023-08-05T17:40:53.056Z,18.37
2023-08-05T17:43:21.367Z,18.39
2023-08-05T17:45:57.767Z,18.22
2023-08-05T17:48:25.831Z,18.22
2023-08-05T17:50:59.104Z,18.22
2023-08-05T17:53:28.180Z,18.21
2023-08-05T17:55:56.152Z,18.21
2023-08-05T17:58:24.034Z,18.27
2023-08-05T18:00:52.204Z,18.31
2023-08-05T18:03:20.222Z,18.38
2023-08-05T18:05:48.117Z,18.27
2023-08-05T18:08:17.544Z,18.26
2023-08-05T18:10:45.829Z,18.30
2023-08-05T18:13:13.874Z,18.38
2023-08-05T18:15:41.852Z,18.24
2023-08-05T18:18:10.077Z,18.32
2023-08-05T18:20:38.102Z,18.30
2023-08-05T18:23:06.380Z,18.36
2023-08-05T18:25:35.759Z,18.37
2023-08-05T18:28:04.390Z,18.34
2023-08-05T18:30:32.587Z,18.44
2023-08-05T18:33:01.370Z,18.51
2023-08-05T18:35:29.616Z,18.57
2023-08-05T18:37:58.912Z,18.62
2023-08-05T18:40:26.909Z,18.62
2023-08-05T18:42:56.135Z,18.56
2023-08-05T18:45:23.936Z,18.46
2023-08-05T18:47:51.854Z,18.45
2023-08-05T18:50:19.715Z,18.44
2023-08-05T18:52:47.770Z,18.40
2023-08-05T18:55:15.848Z,18.32
2023-08-05T18:57:43.869Z,18.28
2023-08-05T19:00:14.066Z,18.30
2023-08-05T19:02:42.180Z,18.22
2023-08-05T19:05:11.474Z,18.07
2023-08-05T19:07:39.790Z,18.02
2023-08-05T19:10:08.745Z,17.95
2023-08-05T19:12:36.669Z,17.95
2023-08-05T19:15:05.554Z,18.01
2023-08-05T19:17:37.567Z,18.00
2023-08-05T19:20:06.898Z,17.84
2023-08-05T19:22:35.539Z,17.88
2023-08-05T19:25:03.628Z,17.90
2023-08-05T19:27:40.545Z,17.90
2023-08-05T19:30:16.569Z,17.92
2023-08-05T19:32:46.413Z,17.91
2023-08-05T19:35:14.889Z,17.72
2023-08-05T19:37:42.938Z,17.72
2023-08-05T19:40:12.030Z,17.82
2023-08-05T19:42:39.935Z,17.85
2023-08-05T19:45:08.787Z,17.87
2023-08-05T19:47:41.180Z,17.83
2023-08-05T19:50:11.443Z,17.81
2023-08-05T19:52:40.416Z,17.80
2023-08-05T19:55:08.757Z,17.83
2023-08-05T19:57:36.616Z,17.80
2023-08-05T20:00:05.286Z,17.84
2023-08-05T20:02:35.631Z,17.86
2023-08-05T20:05:03.950Z,17.90
2023-08-05T20:07:33.359Z,17.80
2023-08-05T20:10:01.594Z,17.81
2023-08-05T20:12:29.454Z,17.86
2023-08-05T20:14:57.320Z,17.84
2023-08-05T20:17:25.104Z,17.81
2023-08-05T20:19:52.932Z,17.86
2023-08-05T20:22:20.848Z,17.84
2023-08-05T20:24:50.401Z,17.83
2023-08-05T20:27:19.428Z,17.79
2023-08-05T20:29:47.226Z,17.74
2023-08-05T20:32:15.400Z,17.76
2023-08-05T20:34:44.171Z,17.74
2023-08-05T20:37:12.510Z,17.75
2023-08-05T20:39:40.339Z,17.75
2023-08-05T20:42:09.864Z,17.74
2023-08-05T20:44:37.611Z,17.64
2023-08-05T20:47:05.806Z,17.69
2023-08-05T20:49:33.820Z,17.67
2023-08-05T20:52:01.894Z,17.67
2023-08-05T20:54:29.745Z,17.59
2023-08-05T20:56:58.211Z,17.57
2023-08-05T20:59:27.904Z,17.63
2023-08-05T21:01:56.013Z,17.58
2023-08-05T21:04:24.525Z,17.51
2023-08-05T21:06:54.706Z,17.50
2023-08-05T21:09:23.041Z,17.49
2023-08-05T21:11:51.167Z,17.51
2023-08-05T21:14:19.428Z,17.53
2023-08-05T21:16:50.132Z,17.55
2023-08-05T21:19:18.137Z,17.57
2023-08-05T21:21:46.056Z,17.52
2023-08-05T21:24:13.957Z,17.53
2023-08-05T21:26:41.907Z,17.47
2023-08-05T21:29:09.940Z,17.42
2023-08-05T21:31:38.120Z,17.39
2023-08-05T21:34:07.979Z,17.33
2023-08-05T21:36:36.028Z,17.29
2023-08-05T21:39:04.268Z,17.25
2023-08-05T21:41:32.470Z,17.24
2023-08-05T21:44:00.233Z,17.22
2023-08-05T21:46:28.005Z,17.18
2023-08-05T21:48:55.903Z,17.15
2023-08-05T21:51:25.743Z,17.10
2023-08-05T21:53:53.902Z,17.06
2023-08-05T21:56:22.060Z,16.95
2023-08-05T21:58:50.007Z,16.95
2023-08-05T22:01:17.801Z,16.92
2023-08-05T22:03:45.608Z,16.93
2023-08-05T22:06:13.617Z,16.95
2023-08-05T22:08:42.897Z,17.00
2023-08-05T22:11:11.493Z,17.05
2023-08-05T22:13:39.852Z,17.05
2023-08-05T22:16:09.051Z,17.02
2023-08-05T22:18:37.036Z,16.97
2023-08-05T22:21:05.194Z,16.98
2023-08-05T22:23:33.805Z,16.93
2023-08-05T22:26:08.158Z,16.89
2023-08-05T22:28:35.965Z,16.88
2023-08-05T22:31:03.701Z,16.85
2023-08-05T22:33:31.419Z,16.86
2023-08-05T22:35:59.237Z,16.80
2023-08-05T22:38:27.019Z,16.75
2023-08-05T22:40:55.205Z,16.78
2023-08-05T22:43:24.380Z,16.76
2023-08-05T22:46:01.870Z,16.68
2023-08-05T22:48:31.093Z,16.67
2023-08-05T22:50:59.145Z,16.60
2023-08-05T22:53:27.559Z,16.51
2023-08-05T22:55:56.907Z,16.51
2023-08-05T22:58:26.300Z,16.50
2023-08-05T23:01:00.687Z,16.45
2023-08-05T23:03:28.924Z,16.45
2023-08-05T23:05:58.111Z,16.44
2023-08-05T23:08:26.010Z,16.47
2023-08-05T23:10:53.733Z,16.50
2023-08-05T23:13:21.935Z,16.56
2023-08-05T23:15:51.146Z,16.47
2023-08-05T23:18:18.864Z,16.49
2023-08-05T23:20:47.056Z,16.51
2023-08-05T23:23:14.791Z,16.49
2023-08-05T23:25:42.549Z,16.60
2023-08-05T23:28:10.438Z,16.57
2023-08-05T23:30:38.458Z,16.59
2023-08-05T23:33:07.963Z,16.60
2023-08-05T23:35:39.392Z,16.55
2023-08-05T23:38:07.371Z,16.59
2023-08-05T23:40:35.437Z,16.62
2023-08-05T23:43:03.172Z,16.66
2023-08-05T23:45:30.898Z,16.62
2023-08-05T23:47:58.723Z,16.60
2023-08-05T23:50:28.002Z,16.57
2023-08-05T23:52:55.800Z,16.61
2023-08-05T23:55:23.682Z,16.56
2023-08-05T23:57:51.534Z,16.61
